Time;durP1;ratioP1;P1;durP2;ratioP2;P2;SDS_P1;SDS_P2;PMS_P1;PMS_P2;Temp;Humidity;BMP_temperature;BMP_pressure;BME280_temperature;BME280_humidity;BME280_pressure;Samples;Min_cycle;Max_cycle;Signal;HPM_P1;HPM_P2
2023/06/13 00:01:58;;;;;;;35.53;33.40;;;;;;;14.19;100.00;100768.91;4997640;28;20054;-82
2023/06/13 00:04:25;;;;;;;34.97;32.97;;;;;;;14.32;100.00;100767.06;4991989;28;20430;-83
2023/06/13 00:06:54;;;;;;;32.95;30.77;;;;;;;14.48;100.00;100768.25;5003706;28;20045;-77
2023/06/13 00:09:22;;;;;;;35.30;32.72;;;;;;;14.28;100.00;100763.22;5007799;28;20046;-83
2023/06/13 00:11:49;;;;;;;34.33;31.90;;;;;;;14.23;100.00;100763.91;5008085;28;20050;-83
2023/06/13 00:14:18;;;;;;;34.00;31.80;;;;;;;14.26;100.00;100763.44;4998255;28;20137;-83
2023/06/13 00:16:47;;;;;;;34.78;32.22;;;;;;;14.31;100.00;100752.91;5007461;28;20110;-83
2023/06/13 00:19:23;;;;;;;33.00;30.60;;;;;;;14.18;100.00;100751.22;4999138;28;20494;-84
2023/06/13 00:21:50;;;;;;;36.67;34.47;;;;;;;14.31;100.00;100741.38;4996075;28;20082;-83
2023/06/13 00:24:17;;;;;;;33.85;31.55;;;;;;;14.13;100.00;100751.13;5005922;28;20046;-83
2023/06/13 00:26:44;;;;;;;32.88;30.75;;;;;;;14.29;100.00;100760.31;5005220;28;20049;-83
2023/06/13 00:29:13;;;;;;;34.75;32.65;;;;;;;14.26;100.00;100757.28;5011419;28;20050;-83
2023/06/13 00:31:43;;;;;;;34.80;32.42;;;;;;;14.21;100.00;100753.44;4994764;28;20048;-83
2023/06/13 00:34:10;;;;;;;34.83;32.55;;;;;;;14.10;100.00;100751.56;5002653;28;20112;-77
2023/06/13 00:36:37;;;;;;;33.65;31.35;;;;;;;14.00;100.00;100747.81;4991772;28;20053;-76
2023/06/13 00:39:03;;;;;;;36.40;33.80;;;;;;;14.14;100.00;100749.25;4995463;28;22008;-83
2023/06/13 00:41:32;;;;;;;35.65;33.22;;;;;;;13.92;100.00;100759.66;4998782;28;20103;-83
2023/06/13 00:44:00;;;;;;;36.55;33.95;;;;;;;13.86;100.00;100750.69;4995368;28;20081;-84
2023/06/13 00:46:30;;;;;;;34.47;32.08;;;;;;;13.91;100.00;100758.81;4998250;28;20046;-83
2023/06/13 00:49:02;;;;;;;33.50;31.20;;;;;;;14.01;100.00;100754.78;5003496;28;20438;-83
2023/06/13 00:51:31;;;;;;;34.08;31.67;;;;;;;14.03;100.00;100760.72;5003262;28;20050;-83
2023/06/13 00:54:21;;;;;;;36.88;34.38;;;;;;;14.03;100.00;100766.84;5005092;28;20054;-84
2023/06/13 00:56:53;;;;;;;34.70;32.25;;;;;;;13.90;100.00;100765.19;4995286;28;20046;-83
2023/06/13 00:59:20;;;;;;;35.22;32.72;;;;;;;13.92;100.00;100760.44;4995595;28;20506;-83
2023/06/13 01:01:48;;;;;;;34.67;32.17;;;;;;;13.92;100.00;100760.44;4994328;28;20061;-77
2023/06/13 01:04:19;;;;;;;34.63;32.03;;;;;;;13.65;100.00;100768.00;4993596;28;20055;-76
2023/06/13 01:06:46;;;;;;;38.10;35.50;;;;;;;13.95;100.00;100770.69;4993599;28;20050;-77
2023/06/13 01:09:16;;;;;;;37.05;34.70;;;;;;;13.97;100.00;100776.59;5009667;28;20045;-77
2023/06/13 01:11:54;;;;;;;37.35;34.88;;;;;;;13.94;100.00;100768.22;4993784;28;20060;-77
2023/06/13 01:14:27;;;;;;;35.78;33.13;;;;;;;13.77;100.00;100767.22;4994544;28;20054;-83
2023/06/13 01:17:03;;;;;;;36.05;33.65;;;;;;;13.76;100.00;100769.06;5012876;28;20050;-83
2023/06/13 01:19:38;;;;;;;35.72;33.33;;;;;;;13.71;100.00;100760.94;5006376;28;20060;-83
2023/06/13 01:22:11;;;;;;;36.55;33.92;;;;;;;13.64;100.00;100768.22;5011710;28;20088;-83
2023/06/13 01:24:43;;;;;;;;;;;;;;;13.54;100.00;100763.41;5014101;28;20125;-77
2023/06/13 01:27:14;;;;;;;39.33;36.33;;;;;;;13.52;100.00;100768.97;5010638;28;20356;-77
2023/06/13 01:29:44;;;;;;;39.05;36.30;;;;;;;13.52;100.00;100766.31;5013158;28;20108;-76
2023/06/13 01:32:12;;;;;;;42.03;39.28;;;;;;;13.50;100.00;100773.72;5012264;28;20049;-83
2023/06/13 01:34:45;;;;;;;36.22;33.33;;;;;;;13.45;100.00;100770.09;5012191;28;20117;-77
2023/06/13 01:37:12;;;;;;;35.25;32.45;;;;;;;13.35;100.00;100759.13;5008447;28;20045;-77
2023/06/13 01:39:39;;;;;;;35.17;32.47;;;;;;;13.32;100.00;100772.91;5007932;28;20061;-77
2023/06/13 01:42:07;;;;;;;39.97;36.78;;;;;;;13.16;100.00;100758.25;5009243;28;20049;-77
2023/06/13 01:44:36;;;;;;;37.25;34.08;;;;;;;13.14;100.00;100773.69;5010691;28;20123;-77
2023/06/13 01:47:13;;;;;;;33.75;31.02;;;;;;;13.22;100.00;100760.88;5011631;28;20085;-76
2023/06/13 01:49:49;;;;;;;44.05;40.58;;;;;;;13.37;100.00;100765.84;4994330;28;20485;-76
2023/06/13 01:52:25;;;;;;;33.85;31.23;;;;;;;13.27;100.00;100763.72;5008061;28;20517;-76
2023/06/13 01:54:57;;;;;;;35.97;33.08;;;;;;;13.36;100.00;100755.41;4996587;28;20478;-76
2023/06/13 01:57:43;;;;;;;39.17;36.08;;;;;;;13.29;100.00;100756.31;4994225;28;20042;-76
2023/06/13 02:00:14;;;;;;;39.83;36.72;;;;;;;13.07;100.00;100761.25;4996527;28;20073;-76
2023/06/13 02:02:42;;;;;;;40.47;37.28;;;;;;;12.98;100.00;100754.56;4997104;28;20050;-76
2023/06/13 02:05:09;;;;;;;56.80;52.60;;;;;;;12.87;100.00;100752.63;4993131;28;20053;-77
2023/06/13 02:07:36;;;;;;;54.03;50.05;;;;;;;12.91;100.00;100759.13;4993079;28;20053;-83
2023/06/13 02:10:05;;;;;;;48.67;44.88;;;;;;;12.64;100.00;100760.41;4993053;28;20065;-83
2023/06/13 02:12:38;;;;;;;44.28;40.67;;;;;;;12.96;100.00;100761.16;5009175;28;20136;-83
2023/06/13 02:15:15;;;;;;;44.97;41.25;;;;;;;12.67;100.00;100760.78;5011069;28;20042;-76
2023/06/13 02:17:41;;;;;;;45.20;41.40;;;;;;;12.79;100.00;100758.22;5009485;28;20042;-76
2023/06/13 02:20:09;;;;;;;39.88;36.58;;;;;;;12.87;100.00;100765.94;5009291;28;20050;-76
2023/06/13 02:22:46;;;;;;;34.55;31.45;;;;;;;12.92;100.00;100757.28;5009866;28;20049;-76
2023/06/13 02:25:14;;;;;;;37.42;34.22;;;;;;;12.93;100.00;100746.41;4992370;28;20051;-77
2023/06/13 02:27:41;;;;;;;38.90;35.80;;;;;;;13.02;100.00;100754.94;5007864;28;20485;-76
2023/06/13 02:30:24;;;;;;;40.55;37.45;;;;;;;13.03;100.00;100754.69;4992522;28;20060;-76
2023/06/13 02:32:52;;;;;;;35.33;32.72;;;;;;;13.04;100.00;100756.34;4994317;28;20051;-76
2023/06/13 02:35:23;;;;;;;33.45;30.85;;;;;;;12.83;100.00;100759.44;4993625;28;20038;-76
2023/06/13 02:37:50;;;;;;;36.28;33.38;;;;;;;12.86;100.00;100758.16;5009600;28;20054;-76
2023/06/13 02:40:24;;;;;;;34.47;31.77;;;;;;;12.89;100.00;100763.06;5002953;28;20141;-76
2023/06/13 02:42:52;;;;;;;34.05;31.15;;;;;;;12.46;100.00;100769.16;5011730;28;20042;-77
2023/06/13 02:45:19;;;;;;;31.50;29.00;;;;;;;12.90;100.00;100772.69;5009242;28;20503;-83
2023/06/13 02:47:47;;;;;;;32.03;29.73;;;;;;;12.40;100.00;100768.19;4993851;28;20050;-83
2023/06/13 02:50:14;;;;;;;33.00;30.40;;;;;;;12.67;100.00;100774.13;5012420;28;20168;-83
2023/06/13 02:52:41;;;;;;;32.20;29.80;;;;;;;13.10;100.00;100772.47;4998482;28;20058;-83
2023/06/13 02:55:17;;;;;;;30.48;28.33;;;;;;;13.07;100.00;100768.41;5012023;28;20164;-83
2023/06/13 02:57:45;;;;;;;30.38;28.17;;;;;;;13.06;100.00;100772.13;5008228;28;20072;-83
2023/06/13 03:00:16;;;;;;;31.48;29.17;;;;;;;13.28;100.00;100767.19;5009192;28;20049;-84
2023/06/13 03:02:45;;;;;;;31.35;29.35;;;;;;;13.47;100.00;100762.69;5011324;28;20086;-83
2023/06/13 03:05:22;;;;;;;33.78;31.35;;;;;;;13.40;100.00;100759.25;5010393;28;20052;-76
2023/06/13 03:07:58;;;;;;;36.65;34.08;;;;;;;13.44;100.00;100763.13;5010030;28;20081;-84
2023/06/13 03:10:33;;;;;;;34.35;32.28;;;;;;;13.61;100.00;100766.00;5010920;28;20077;-83
2023/06/13 03:12:59;;;;;;;34.85;32.60;;;;;;;13.51;100.00;100775.34;5008329;28;20046;-84
2023/06/13 03:15:27;;;;;;;36.20;33.90;;;;;;;13.44;100.00;100771.94;5011401;28;20525;-83
2023/06/13 03:17:53;;;;;;;34.72;32.25;;;;;;;13.49;100.00;100772.09;5011490;28;20045;-83
2023/06/13 03:20:31;;;;;;;31.05;29.00;;;;;;;13.73;100.00;100766.84;5011173;28;20050;-83
2023/06/13 03:22:58;;;;;;;31.27;29.05;;;;;;;13.56;100.00;100756.00;5009950;28;20107;-83
2023/06/13 03:25:25;;;;;;;32.55;30.25;;;;;;;13.66;100.00;100760.81;5009333;28;20048;-82
2023/06/13 03:27:52;;;;;;;34.38;32.13;;;;;;;13.53;100.00;100767.13;5009951;28;20437;-83
2023/06/13 03:30:19;;;;;;;38.83;36.22;;;;;;;13.61;100.00;100769.47;5010636;28;20054;-83
2023/06/13 03:32:48;;;;;;;38.20;35.70;;;;;;;13.69;100.00;100763.00;4992681;28;20046;-83
2023/06/13 03:35:15;;;;;;;38.25;35.65;;;;;;;13.74;100.00;100765.84;4991604;28;20047;-76
2023/06/13 03:37:43;;;;;;;35.30;33.13;;;;;;;13.86;100.00;100765.88;4995600;28;20438;-82
2023/06/13 03:40:10;;;;;;;34.42;32.22;;;;;;;13.82;100.00;100762.84;4991276;28;20411;-76
2023/06/13 03:42:41;;;;;;;36.10;33.90;;;;;;;13.90;100.00;100759.03;4991172;28;20053;-76
2023/06/13 03:45:08;;;;;;;37.45;35.05;;;;;;;13.72;100.00;100757.22;4990673;28;20498;-77
2023/06/13 03:47:36;;;;;;;36.72;34.38;;;;;;;14.00;100.00;100766.50;4991305;28;20502;-76
2023/06/13 03:50:06;;;;;;;33.28;30.95;;;;;;;14.08;100.00;100759.00;4991637;28;20442;-76
2023/06/13 03:52:33;;;;;;;34.33;31.92;;;;;;;14.07;100.00;100765.38;4991125;28;20442;-76
2023/06/13 03:55:10;;;;;;;38.88;36.47;;;;;;;14.12;100.00;100770.84;4991539;28;20062;-76
2023/06/13 03:57:38;;;;;;;36.35;33.47;;;;;;;14.26;100.00;100776.81;4991174;28;20478;-76
2023/06/13 04:00:07;;;;;;;35.35;32.70;;;;;;;14.72;100.00;100771.78;4998047;28;20050;-77
2023/06/13 04:02:45;;;;;;;31.00;28.75;;;;;;;14.38;100.00;100766.16;5007550;28;20466;-76
2023/06/13 04:05:13;;;;;;;30.50;28.30;;;;;;;14.35;100.00;100782.63;5008513;28;20104;-77
2023/06/13 04:07:40;;;;;;;33.15;30.95;;;;;;;14.40;100.00;100786.25;5010448;28;20080;-76
2023/06/13 04:10:15;;;;;;;30.20;28.00;;;;;;;14.64;100.00;100776.44;5010819;28;20045;-76
2023/06/13 04:12:43;;;;;;;28.80;26.60;;;;;;;14.65;100.00;100783.41;5012673;28;20488;-76
2023/06/13 04:15:16;;;;;;;28.60;26.63;;;;;;;14.54;100.00;100789.53;5009020;28;20042;-85
2023/06/13 04:17:52;;;;;;;28.80;26.80;;;;;;;14.87;100.00;100777.50;5000760;28;20053;-80
2023/06/13 04:20:23;;;;;;;26.77;24.98;;;;;;;14.87;100.00;100778.31;5010681;28;20050;-83
2023/06/13 04:23:05;;;;;;;27.13;25.42;;;;;;;15.05;100.00;100774.69;4995654;28;20109;-77
2023/06/13 04:25:35;;;;;;;28.95;27.15;;;;;;;14.93;100.00;100779.22;4994668;28;20042;-76
2023/06/13 04:28:02;;;;;;;29.52;27.73;;;;;;;14.75;100.00;100787.38;5007696;28;20525;-76
2023/06/13 04:30:30;;;;;;;28.10;26.27;;;;;;;14.72;100.00;100791.31;4997854;28;20507;-76
2023/06/13 04:32:58;;;;;;;27.60;25.80;;;;;;;15.00;100.00;100781.78;5003520;28;20119;-77
2023/06/13 04:35:25;;;;;;;27.10;24.83;;;;;;;15.26;100.00;100777.81;5005736;28;20042;-77
2023/06/13 04:38:02;;;;;;;28.02;26.02;;;;;;;15.10;100.00;100785.50;5014434;28;20061;-84
2023/06/13 04:40:31;;;;;;;24.80;23.20;;;;;;;15.28;100.00;100779.22;5004935;28;20415;-83
2023/06/13 04:43:03;;;;;;;26.05;23.98;;;;;;;15.03;100.00;100787.47;5011518;28;20046;-84
2023/06/13 04:45:30;;;;;;;;;;;;;;;15.85;100.00;100793.72;5012848;28;20042;-84
2023/06/13 04:48:01;;;;;;;25.85;23.83;;;;;;;15.31;100.00;100789.44;5010774;28;20405;-82
2023/06/13 04:50:40;;;;;;;26.88;24.88;;;;;;;15.74;100.00;100790.06;5012626;28;20045;-83
2023/06/13 04:53:11;;;;;;;26.00;24.00;;;;;;;15.72;100.00;100795.66;5013503;28;20042;-83
2023/06/13 04:55:38;;;;;;;25.52;23.63;;;;;;;15.96;100.00;100790.22;5011933;28;20502;-77
2023/06/13 04:58:13;;;;;;;26.13;23.92;;;;;;;15.84;100.00;100792.94;5012698;28;20080;-83
2023/06/13 05:00:40;;;;;;;24.63;22.88;;;;;;;16.14;100.00;100795.34;5013114;28;20081;-83
2023/06/13 05:03:07;;;;;;;24.77;22.88;;;;;;;16.24;100.00;100806.25;5012858;28;20045;-83
2023/06/13 05:05:34;;;;;;;25.63;23.63;;;;;;;17.15;100.00;100799.91;5011181;28;20045;-77
2023/06/13 05:08:02;;;;;;;22.48;20.95;;;;;;;17.53;100.00;100785.66;5011395;28;20049;-77
2023/06/13 05:10:29;;;;;;;22.33;20.67;;;;;;;17.75;100.00;100791.00;5002524;28;20069;-82
2023/06/13 05:13:01;;;;;;;25.73;23.80;;;;;;;17.02;100.00;100797.59;5009553;28;20056;-76
2023/06/13 05:15:30;;;;;;;23.83;22.02;;;;;;;16.12;100.00;100797.44;5006472;28;20045;-83
2023/06/13 05:17:57;;;;;;;24.73;22.73;;;;;;;16.05;100.00;100794.13;4993949;28;20442;-84
2023/06/13 05:20:27;;;;;;;32.95;30.85;;;;;;;16.15;100.00;100796.16;5005826;28;20081;-84
2023/06/13 05:22:57;;;;;;;29.08;27.17;;;;;;;16.26;100.00;100796.09;5008834;28;20038;-84
2023/06/13 05:25:25;;;;;;;26.52;24.63;;;;;;;16.39;100.00;100794.97;4992920;28;20057;-77
2023/06/13 05:27:52;;;;;;;24.60;22.90;;;;;;;16.31;100.00;100791.88;5010257;28;20076;-77
2023/06/13 05:30:25;;;;;;;26.42;24.63;;;;;;;16.22;100.00;100808.38;5010030;28;20053;-77
2023/06/13 05:32:53;;;;;;;35.40;33.22;;;;;;;18.11;100.00;100796.00;5012459;28;20045;-83
2023/06/13 05:35:20;;;;;;;23.50;21.90;;;;;;;16.57;100.00;100801.16;5012624;28;20053;-82
2023/06/13 05:37:48;;;;;;;27.35;25.70;;;;;;;16.44;100.00;100802.31;5011090;28;20050;-77
2023/06/13 05:40:15;;;;;;;27.80;26.10;;;;;;;16.71;100.00;100802.47;5010156;28;20501;-77
2023/06/13 05:42:42;;;;;;;29.27;27.30;;;;;;;16.18;100.00;100798.38;5010160;28;20079;-77
2023/06/13 05:45:10;;;;;;;28.40;26.60;;;;;;;17.04;100.00;100798.97;5011182;28;20457;-77
2023/06/13 05:47:37;;;;;;;29.73;27.92;;;;;;;17.27;100.00;100799.81;5011038;28;20042;-77
2023/06/13 05:50:06;;;;;;;28.58;26.67;;;;;;;17.15;100.00;100799.91;5010997;28;20048;-77
2023/06/13 05:52:33;;;;;;;25.85;23.95;;;;;;;17.38;100.00;100797.03;5009935;28;20050;-77
2023/06/13 05:55:01;;;;;;;25.25;23.17;;;;;;;17.46;100.00;100808.38;5010735;28;20050;-77
2023/06/13 05:57:40;;;;;;;26.83;24.70;;;;;;;17.30;100.00;100808.19;5003809;28;20049;-77
2023/06/13 06:00:26;;;;;;;28.20;26.20;;;;;;;17.95;100.00;100805.78;5011269;28;20149;-78
2023/06/13 06:02:53;;;;;;;27.05;25.17;;;;;;;18.01;100.00;100804.75;4993288;28;20054;-77
2023/06/13 06:05:30;;;;;;;26.55;24.45;;;;;;;17.25;100.00;100807.31;5004707;28;20530;-77
2023/06/13 06:07:57;;;;;;;26.98;24.92;;;;;;;16.98;100.00;100810.69;4998715;28;20495;-77
2023/06/13 06:10:24;;;;;;;27.08;24.98;;;;;;;16.75;100.00;100816.22;4999395;28;20050;-86
2023/06/13 06:12:50;;;;;;;28.70;26.48;;;;;;;17.59;100.00;100806.13;5011003;28;20049;-83
2023/06/13 06:15:17;;;;;;;26.42;24.38;;;;;;;18.33;100.00;100807.47;5010597;28;20053;-83
2023/06/13 06:17:46;;;;;;;27.80;25.45;;;;;;;18.03;100.00;100808.00;5010151;28;20473;-84
2023/06/13 06:20:13;;;;;;;26.73;24.65;;;;;;;18.00;100.00;100808.50;4998766;28;20050;-84
2023/06/13 06:22:41;;;;;;;27.25;25.23;;;;;;;17.82;100.00;100807.78;5004845;28;20551;-83
2023/06/13 06:25:12;;;;;;;27.45;25.30;;;;;;;18.91;100.00;100803.16;5006261;28;20494;-83
2023/06/13 06:27:39;;;;;;;26.00;24.17;;;;;;;18.77;100.00;100807.34;5010983;28;20105;-84
2023/06/13 06:30:07;;;;;;;24.58;22.85;;;;;;;19.45;100.00;100799.38;4993765;28;20764;-83
2023/06/13 06:32:34;;;;;;;23.05;21.35;;;;;;;19.72;100.00;100806.50;5008081;28;20133;-83
2023/06/13 06:35:04;;;;;;;21.73;20.05;;;;;;;19.20;100.00;100800.88;5010630;28;20836;-83
2023/06/13 06:37:32;;;;;;;25.08;23.25;;;;;;;18.25;100.00;100803.38;4995611;28;20438;-83
2023/06/13 06:40:00;;;;;;;27.52;25.50;;;;;;;17.89;100.00;100798.72;5002081;28;20046;-87
2023/06/13 06:42:28;;;;;;;26.48;24.20;;;;;;;18.79;100.00;100804.38;5011223;28;20532;-82
2023/06/13 06:44:55;;;;;;;26.33;24.23;;;;;;;17.85;100.00;100801.91;5006324;28;20406;-78
2023/06/13 06:47:22;;;;;;;24.95;22.85;;;;;;;17.86;100.00;100802.72;5022181;28;20049;-77
2023/06/13 06:49:49;;;;;;;29.58;27.13;;;;;;;17.88;100.00;100805.13;5005747;28;20050;-84
2023/06/13 06:52:18;;;;;;;28.20;25.92;;;;;;;17.51;100.00;100811.94;5003826;28;20050;-84
2023/06/13 06:54:44;;;;;;;27.92;25.38;;;;;;;17.71;100.00;100807.91;5003327;28;20053;-83
2023/06/13 06:57:15;;;;;;;29.08;26.45;;;;;;;17.91;100.00;100810.00;4997064;28;20050;-84
2023/06/13 06:59:42;;;;;;;28.00;25.65;;;;;;;18.60;100.00;100815.50;5008726;28;20042;-84
2023/06/13 07:02:09;;;;;;;23.90;22.10;;;;;;;19.58;100.00;100800.78;5010904;28;20046;-83
2023/06/13 07:04:36;;;;;;;23.00;21.10;;;;;;;19.12;100.00;100803.25;5010252;28;20468;-84
2023/06/13 07:07:04;;;;;;;24.77;22.88;;;;;;;18.92;100.00;100807.44;5006524;28;20427;-84
2023/06/13 07:09:31;;;;;;;24.55;22.30;;;;;;;19.13;100.00;100805.69;5005986;28;20509;-84
2023/06/13 07:11:58;;;;;;;23.83;21.92;;;;;;;18.65;100.00;100801.31;5010551;28;20045;-84
2023/06/13 07:14:27;;;;;;;24.73;22.92;;;;;;;20.53;100.00;100795.09;5011262;28;20145;-84
2023/06/13 07:17:00;;;;;;;22.75;20.90;;;;;;;19.71;100.00;100781.47;4995729;28;20498;-83
2023/06/13 07:19:27;;;;;;;25.52;23.55;;;;;;;18.67;100.00;100797.28;5005155;28;20057;-83
2023/06/13 07:21:55;;;;;;;24.65;22.90;;;;;;;19.82;100.00;100803.88;5008804;28;20090;-84
2023/06/13 07:24:29;;;;;;;25.20;23.20;;;;;;;19.06;100.00;100799.72;5000367;28;20521;-84
2023/06/13 07:26:55;;;;;;;24.60;22.70;;;;;;;19.19;100.00;100804.66;4999017;28;20057;-85
2023/06/13 07:29:22;;;;;;;25.27;23.23;;;;;;;19.26;100.00;100800.91;4991437;28;20682;-77
2023/06/13 07:31:54;;;;;;;24.80;22.98;;;;;;;19.13;100.00;100804.88;4991240;28;20046;-77
2023/06/13 07:34:20;;;;;;;24.38;22.48;;;;;;;18.95;100.00;100806.94;4999129;28;20490;-77
2023/06/13 07:36:48;;;;;;;24.67;22.58;;;;;;;19.34;100.00;100795.84;5009090;28;20053;-77
2023/06/13 07:39:15;;;;;;;24.02;22.02;;;;;;;19.17;100.00;100793.31;5010980;28;20042;-77
2023/06/13 07:41:46;;;;;;;24.08;22.42;;;;;;;19.70;100.00;100782.56;5004327;28;20502;-78
2023/06/13 07:44:13;;;;;;;24.02;22.35;;;;;;;19.84;100.00;100789.03;5000521;28;20442;-85
2023/06/13 07:46:40;;;;;;;25.40;23.33;;;;;;;20.10;100.00;100779.13;4992438;28;20078;-78
2023/06/13 07:49:08;;;;;;;23.80;22.00;;;;;;;20.63;100.00;100788.88;5007351;28;20050;-77
2023/06/13 07:51:35;;;;;;;23.23;21.42;;;;;;;20.13;100.00;100793.97;4999344;28;20058;-85
2023/06/13 07:54:25;;;;;;;22.73;20.83;;;;;;;20.32;100.00;100786.16;4995799;28;20126;-83
2023/06/13 07:56:52;;;;;;;23.83;21.90;;;;;;;19.88;100.00;100787.44;4995719;28;20058;-83
2023/06/13 07:59:21;;;;;;;22.17;20.48;;;;;;;21.49;100.00;100777.88;4998241;28;20060;-83
2023/06/13 08:01:47;;;;;;;23.95;22.05;;;;;;;20.64;100.00;100774.31;5010383;28;20049;-84
2023/06/13 08:04:19;;;;;;;24.58;22.80;;;;;;;21.35;100.00;100773.31;5014496;28;20054;-84
2023/06/13 08:06:45;;;;;;;24.23;22.48;;;;;;;20.92;100.00;100772.91;5005864;28;20058;-84
2023/06/13 08:09:12;;;;;;;24.95;22.95;;;;;;;20.30;100.00;100777.50;4998925;28;20046;-83
2023/06/13 08:11:40;;;;;;;24.80;23.05;;;;;;;20.90;100.00;100773.16;5013287;28;20048;-84
2023/06/13 08:14:12;;;;;;;24.20;22.23;;;;;;;21.61;100.00;100763.25;5013257;28;20045;-77
2023/06/13 08:16:39;;;;;;;25.05;22.95;;;;;;;21.69;100.00;100765.34;4996240;28;20054;-77
2023/06/13 08:19:06;;;;;;;24.30;21.92;;;;;;;21.67;100.00;100768.34;5010874;28;20525;-77
2023/06/13 08:21:35;;;;;;;24.92;23.02;;;;;;;22.16;100.00;100766.66;5009875;28;20557;-78
2023/06/13 08:24:12;;;;;;;24.23;22.33;;;;;;;22.00;100.00;100763.28;5001434;28;20046;-77
2023/06/13 08:26:39;;;;;;;23.60;21.85;;;;;;;21.65;100.00;100758.88;4998335;28;20049;-78
2023/06/13 08:29:06;;;;;;;25.20;23.30;;;;;;;22.06;100.00;100755.91;5002839;28;20038;-85
2023/06/13 08:31:33;;;;;;;25.00;23.02;;;;;;;21.77;100.00;100753.16;5009845;28;21159;-84
2023/06/13 08:34:00;;;;;;;23.52;21.80;;;;;;;21.86;100.00;100751.47;5004686;28;20442;-84
2023/06/13 08:36:27;;;;;;;24.58;22.85;;;;;;;22.33;100.00;100750.88;4999293;28;20057;-84
2023/06/13 08:38:57;;;;;;;23.90;22.20;;;;;;;22.38;100.00;100748.09;5011088;28;20038;-77
2023/06/13 08:41:26;;;;;;;24.17;22.42;;;;;;;22.52;100.00;100748.28;5013372;28;20108;-77
2023/06/13 08:43:53;;;;;;;23.40;21.70;;;;;;;23.25;100.00;100741.00;5013650;28;20053;-78
2023/06/13 08:46:21;;;;;;;23.73;21.77;;;;;;;23.04;100.00;100745.88;5013902;28;20045;-78
2023/06/13 08:48:50;;;;;;;23.70;21.85;;;;;;;22.45;100.00;100742.38;5011794;28;20145;-78
2023/06/13 08:51:19;;;;;;;23.42;21.83;;;;;;;22.82;100.00;100735.53;5013172;28;20112;-78
2023/06/13 08:54:00;;;;;;;24.10;22.30;;;;;;;22.70;100.00;100729.69;5006126;28;20053;-78
2023/06/13 08:56:35;;;;;;;23.98;22.35;;;;;;;22.18;100.00;100732.88;5006112;28;20081;-78
2023/06/13 08:59:07;;;;;;;25.10;23.05;;;;;;;22.48;100.00;100731.00;5000770;28;20050;-77
2023/06/13 09:01:35;;;;;;;24.88;22.98;;;;;;;22.51;100.00;100727.72;5002441;28;20054;-77
2023/06/13 09:04:03;;;;;;;22.92;21.33;;;;;;;23.11;100.00;100723.84;5010381;28;20564;-77
2023/06/13 09:06:37;;;;;;;23.52;21.80;;;;;;;23.46;100.00;100720.69;4999401;28;20051;-78
2023/06/13 09:09:07;;;;;;;23.77;21.73;;;;;;;23.54;100.00;100719.19;4996677;28;20046;-85
2023/06/13 09:11:34;;;;;;;23.92;22.08;;;;;;;23.79;100.00;100714.56;4999984;28;20112;-85
2023/06/13 09:14:06;;;;;;;23.40;21.67;;;;;;;23.47;100.00;100719.56;5008761;28;20115;-85
2023/06/13 09:16:33;;;;;;;23.52;21.83;;;;;;;23.72;100.00;100710.31;4998173;28;20050;-84
2023/06/13 09:19:04;;;;;;;22.77;21.15;;;;;;;23.95;100.00;100708.59;4994584;28;20057;-85
2023/06/13 09:21:31;;;;;;;23.38;21.45;;;;;;;23.58;100.00;100711.31;4994437;28;20050;-87
2023/06/13 09:24:00;;;;;;;22.17;20.48;;;;;;;23.92;100.00;100714.59;4999756;28;20104;-84
2023/06/13 09:26:34;;;;;;;21.05;19.38;;;;;;;24.08;100.00;100701.59;5004040;28;20053;-84
2023/06/13 09:29:01;;;;;;;23.75;21.65;;;;;;;24.12;100.00;100710.78;5012149;28;20074;-84
2023/06/13 09:31:29;;;;;;;23.13;21.23;;;;;;;24.14;100.00;100692.28;4997319;28;20057;-85
2023/06/13 09:34:01;;;;;;;22.90;21.00;;;;;;;23.91;100.00;100685.88;5006855;28;20057;-85
2023/06/13 09:36:27;;;;;;;21.38;19.75;;;;;;;24.48;100.00;100696.63;5009677;28;20050;-78
2023/06/13 09:39:05;;;;;;;22.90;20.95;;;;;;;24.56;100.00;100695.91;5012093;28;20042;-77
2023/06/13 09:41:35;;;;;;;22.40;20.73;;;;;;;24.85;100.00;100690.19;5009107;28;20506;-78
2023/06/13 09:44:04;;;;;;;20.90;19.35;;;;;;;24.56;100.00;100681.53;5000804;28;20108;-78
2023/06/13 09:46:35;;;;;;;23.13;21.27;;;;;;;24.97;100.00;100678.81;5010119;28;20128;-77
2023/06/13 09:49:02;;;;;;;22.02;20.23;;;;;;;24.55;100.00;100671.78;5014254;28;20112;-77
2023/06/13 09:51:31;;;;;;;21.80;19.95;;;;;;;25.01;100.00;100676.28;5012203;28;20050;-78
2023/06/13 09:53:59;;;;;;;22.38;20.60;;;;;;;25.17;100.00;100664.00;5010650;28;20128;-77
2023/06/13 09:56:28;;;;;;;22.48;20.98;;;;;;;24.60;100.00;100666.25;5007707;28;20052;-78
2023/06/13 09:58:56;;;;;;;23.17;21.48;;;;;;;25.62;100.00;100663.28;5007411;28;20570;-77
2023/06/13 10:01:23;;;;;;;22.42;20.58;;;;;;;25.22;100.00;100668.56;5009403;28;20050;-77
2023/06/13 10:04:02;;;;;;;22.30;20.67;;;;;;;25.45;100.00;100662.06;5012013;28;20580;-84
2023/06/13 10:06:29;;;;;;;21.80;19.90;;;;;;;25.55;100.00;100659.09;5011624;28;20045;-83
2023/06/13 10:08:56;;;;;;;23.15;21.40;;;;;;;25.52;100.00;100664.34;5011936;28;20434;-85
2023/06/13 10:11:27;;;;;;;22.55;20.60;;;;;;;25.36;100.00;100661.19;5007801;28;20108;-77
2023/06/13 10:14:00;;;;;;;23.50;21.70;;;;;;;25.16;100.00;100661.63;5012008;28;20049;-77
2023/06/13 10:16:28;;;;;;;21.08;19.73;;;;;;;25.13;100.00;100657.59;5007897;28;20050;-77
2023/06/13 10:18:59;;;;;;;21.80;20.20;;;;;;;25.06;100.00;100665.34;4997787;28;20470;-85
2023/06/13 10:21:33;;;;;;;21.13;19.67;;;;;;;25.27;100.00;100654.84;4998046;28;20053;-84
2023/06/13 10:24:13;;;;;;;21.52;19.92;;;;;;;25.65;100.00;100654.50;5011713;28;20053;-83
2023/06/13 10:26:43;;;;;;;21.67;20.20;;;;;;;24.82;100.00;100658.22;5005682;28;20046;-85
2023/06/13 10:29:54;;;;;;;23.00;21.45;;;;;;;24.96;100.00;100652.75;5000690;28;20046;-84
2023/06/13 10:32:57;;;;;;;22.10;20.65;;;;;;;25.04;100.00;100656.66;4991509;28;20112;-84
2023/06/13 10:35:43;;;;;;;20.88;19.67;;;;;;;25.00;100.00;100659.19;4992042;28;20145;-85
2023/06/13 10:38:54;;;;;;;21.52;20.10;;;;;;;25.47;100.00;100648.13;4993096;28;20511;-84
2023/06/13 10:41:54;;;;;;;20.92;19.50;;;;;;;25.34;100.00;100657.94;5004244;28;20580;-84
2023/06/13 10:44:46;;;;;;;19.52;18.02;;;;;;;25.61;100.00;100657.06;4995563;28;20073;-85
2023/06/13 10:47:18;;;;;;;21.02;19.58;;;;;;;25.10;100.00;100653.53;4993886;28;20068;-83
2023/06/13 10:49:49;;;;;;;21.48;19.80;;;;;;;24.95;100.00;100663.94;5005863;28;20050;-84
2023/06/13 10:52:19;;;;;;;21.35;19.95;;;;;;;25.81;100.00;100650.34;5011979;28;20073;-83
2023/06/13 10:54:52;;;;;;;20.50;19.08;;;;;;;26.04;100.00;100651.94;5001087;28;20136;-83
2023/06/13 10:57:23;;;;;;;22.48;20.83;;;;;;;25.92;100.00;100653.63;5011894;28;20099;-83
2023/06/13 10:59:51;;;;;;;20.52;19.13;;;;;;;25.50;100.00;100645.59;5010868;28;20053;-84
2023/06/13 11:02:20;;;;;;;20.10;18.60;;;;;;;25.82;100.00;100646.53;4992142;28;20050;-78
2023/06/13 11:04:51;;;;;;;19.90;18.50;;;;;;;25.58;100.00;100639.44;5010143;28;20054;-78
2023/06/13 11:07:47;;;;;;;20.55;19.15;;;;;;;25.39;100.00;100646.97;5010347;28;20088;-77
2023/06/13 11:10:16;;;;;;;20.52;19.13;;;;;;;25.40;100.00;100642.34;5011281;28;20046;-77
2023/06/13 11:12:44;;;;;;;19.60;18.08;;;;;;;25.61;100.00;100638.03;5010749;28;20046;-79
2023/06/13 11:15:22;;;;;;;19.35;17.95;;;;;;;25.62;100.00;100641.53;5010372;28;20104;-78
2023/06/13 11:18:26;;;;;;;20.17;18.70;;;;;;;25.42;100.00;100638.19;5011074;28;20082;-83